Time;durP1;ratioP1;P1;durP2;ratioP2;P2;SDS_P1;SDS_P2;PMS_P1;PMS_P2;Temp;Humidity;BMP_temperature;BMP_pressure;BME280_temperature;BME280_humidity;BME280_pressure;Samples;Min_cycle;Max_cycle;Signal;HPM_P1;HPM_P2
2022/04/21 00:07:30;;;;;;;8.27;6.87;;;11.70;56.10;;;;;;21170959;28;20259;-66
2022/04/21 00:17:32;;;;;;;7.93;6.83;;;11.50;56.60;;;;;;21145546;28;20232;-65
2022/04/21 00:27:41;;;;;;;9.57;7.10;;;11.50;57.10;;;;;;21082876;28;20572;-65
2022/04/21 00:38:09;;;;;;;11.23;7.10;;;11.20;57.90;;;;;;21085195;28;20324;-66
2022/04/21 00:48:11;;;;;;;9.93;7.03;;;11.00;58.80;;;;;;21062648;28;20234;-65
2022/04/21 00:58:15;;;;;;;8.43;6.60;;;11.00;59.40;;;;;;21099545;28;20325;-65
2022/04/21 01:08:17;;;;;;;9.93;6.80;;;10.90;59.90;;;;;;21082755;28;20223;-65
2022/04/21 01:18:27;;;;;;;9.27;7.70;;;10.70;60.60;;;;;;21081665;28;20244;-65
2022/04/21 01:28:30;;;;;;;12.50;7.63;;;10.80;60.70;;;;;;21081395;28;20205;-66
2022/04/21 01:48:52;;;;;;;13.07;8.33;;;10.70;61.90;;;;;;21079684;28;20729;-65
2022/04/21 01:58:54;;;;;;;11.47;8.70;;;10.70;62.60;;;;;;21095407;28;20279;-66
2022/04/21 02:08:55;;;;;;;11.97;8.53;;;10.60;63.00;;;;;;21079467;28;20680;-66
2022/04/21 02:18:57;;;;;;;9.27;8.17;;;10.50;63.50;;;;;;21077878;28;20234;-64
2022/04/21 02:28:59;;;;;;;11.10;8.67;;;10.50;63.60;;;;;;21076284;28;20252;-65
2022/04/21 02:39:01;;;;;;;14.80;9.20;;;10.30;65.10;;;;;;21094759;28;20237;-69
2022/04/21 02:49:03;;;;;;;13.53;9.10;;;10.00;66.10;;;;;;21093675;28;20245;-66
2022/04/21 02:59:05;;;;;;;12.33;9.10;;;10.00;66.80;;;;;;21093845;28;20237;-68
2022/04/21 03:09:07;;;;;;;14.27;9.17;;;9.70;68.20;;;;;;21106714;28;20208;-68
2022/04/21 03:19:08;;;;;;;11.70;9.00;;;9.60;68.90;;;;;;21091854;28;20673;-68
2022/04/21 03:29:10;;;;;;;11.33;8.87;;;9.40;69.90;;;;;;21091310;28;20209;-67
2022/04/21 03:39:12;;;;;;;11.90;9.60;;;9.50;70.90;;;;;;21090086;28;20242;-67
2022/04/21 03:49:14;;;;;;;11.67;8.40;;;9.50;70.50;;;;;;21089304;28;20230;-68
2022/04/21 03:59:20;;;;;;;12.27;9.33;;;9.50;71.30;;;;;;21088778;28;20786;-66
2022/04/21 04:19:42;;;;;;;12.80;9.40;;;9.40;71.70;;;;;;21086205;28;20240;-64
2022/04/21 04:29:44;;;;;;;12.83;9.57;;;9.50;72.40;;;;;;21082834;28;20209;-65
2022/04/21 04:39:46;;;;;;;15.53;10.93;;;9.50;72.50;;;;;;21101008;28;20274;-66
2022/04/21 04:49:48;;;;;;;15.47;10.70;;;9.50;73.10;;;;;;21083861;28;20239;-67
2022/04/21 04:59:49;;;;;;;11.80;8.17;;;9.60;73.90;;;;;;21083040;28;20603;-66
2022/04/21 05:09:51;;;;;;;14.13;9.63;;;9.80;73.70;;;;;;21082692;28;20606;-67
2022/04/21 05:19:53;;;;;;;13.10;8.70;;;9.80;73.60;;;;;;21097139;28;20239;-70
2022/04/21 05:40:16;;;;;;;17.93;9.47;;;10.10;73.30;;;;;;21079625;28;20264;-69
2022/04/21 05:50:18;;;;;;;12.03;8.63;;;10.40;72.80;;;;;;21077437;28;20233;-70
2022/04/21 06:00:20;;;;;;;13.40;8.77;;;10.50;72.80;;;;;;21078870;28;20285;-70
2022/04/21 06:10:22;;;;;;;10.50;8.93;;;10.60;72.60;;;;;;21077408;28;20228;-68
2022/04/21 06:20:28;;;;;;;14.53;9.03;;;10.80;72.40;;;;;;21077044;28;20716;-71
2022/04/21 06:30:31;;;;;;;21.93;9.67;;;10.90;73.00;;;;;;21091260;28;20662;-71
2022/04/21 06:40:33;;;;;;;20.37;9.73;;;11.10;72.20;;;;;;21076093;28;20325;-69
2022/04/21 06:50:36;;;;;;;20.70;10.80;;;11.60;70.50;;;;;;21056790;28;20726;-67
2022/04/21 07:00:38;;;;;;;16.23;12.27;;;11.70;71.10;;;;;;21074799;28;20240;-67
2022/04/21 07:10:39;;;;;;;20.33;11.43;;;11.80;69.60;;;;;;21056965;28;20217;-68
2022/04/21 07:20:41;;;;;;;16.80;9.37;;;12.30;69.00;;;;;;21066837;28;20273;-67
2022/04/21 07:30:43;;;;;;;13.40;9.10;;;12.60;68.30;;;;;;21089458;28;20527;-66
2022/04/21 07:40:49;;;;;;;10.27;8.00;;;13.00;67.50;;;;;;21103944;28;20633;-66
2022/04/21 07:50:52;;;;;;;8.30;5.97;;;13.50;65.00;;;;;;21104977;28;20272;-71
2022/04/21 08:00:55;;;;;;;7.13;6.07;;;13.60;63.30;;;;;;21093858;28;20720;-69
2022/04/21 08:10:57;;;;;;;11.47;5.83;;;14.30;60.80;;;;;;21087798;28;20205;-69
2022/04/21 08:20:59;;;;;;;7.40;5.30;;;14.80;59.60;;;;;;21084956;28;20232;-68
2022/04/21 08:41:45;;;;;;;8.67;5.40;;;15.40;56.90;;;;;;21083859;28;20590;-70
2022/04/21 08:51:48;;;;;;;6.63;4.37;;;15.50;56.30;;;;;;21083144;28;20239;-70
2022/04/21 09:01:49;;;;;;;6.77;5.30;;;15.50;55.50;;;;;;21082186;28;20599;-68
2022/04/21 09:11:53;;;;;;;9.27;4.73;;;15.60;54.80;;;;;;21081646;28;20214;-68
2022/04/21 09:21:56;;;;;;;7.37;4.97;;;15.50;54.40;;;;;;21080603;28;20234;-68
2022/04/21 09:32:02;;;;;;;8.23;5.57;;;15.50;54.00;;;;;;21078962;28;20233;-69
2022/04/21 09:42:08;;;;;;;10.10;4.73;;;15.40;53.90;;;;;;21077893;28;20280;-67
2022/04/21 09:52:11;;;;;;;12.60;5.30;;;15.60;53.80;;;;;;21078408;28;20240;-67
2022/04/21 10:02:14;;;;;;;6.53;4.30;;;15.80;54.00;;;;;;21078166;28;20704;-69
2022/04/21 10:12:19;;;;;;;15.23;8.40;;;16.00;52.20;;;;;;21078461;28;20210;-70
2022/04/21 10:22:21;;;;;;;5.67;4.20;;;16.20;52.40;;;;;;21076540;28;20237;-67
2022/04/21 10:32:46;;;;;;;5.13;4.40;;;16.30;53.00;;;;;;21080523;28;20583;-67
2022/04/21 10:42:58;;;;;;;4.57;3.70;;;16.50;53.20;;;;;;21077668;28;20245;-66
2022/04/21 11:03:26;;;;;;;4.60;3.77;;;17.00;52.50;;;;;;21091728;28;20589;-67
2022/04/21 11:13:51;;;;;;;4.30;3.57;;;17.00;53.00;;;;;;21091558;28;20661;-66
2022/04/21 11:23:52;;;;;;;7.73;3.30;;;16.90;53.20;;;;;;21090363;28;20258;-66
2022/04/21 11:34:01;;;;;;;3.97;3.40;;;17.00;52.50;;;;;;21089689;28;20216;-66
2022/04/21 11:44:03;;;;;;;3.93;3.53;;;17.10;52.40;;;;;;21087598;28;20683;-68
2022/04/21 11:54:08;;;;;;;4.13;3.50;;;17.80;52.10;;;;;;21015531;28;20240;-68
2022/04/21 12:14:31;;;;;;;4.83;3.00;;;18.40;51.30;;;;;;21002234;28;20228;-67
2022/04/21 12:24:43;;;;;;;6.70;3.30;;;18.30;50.30;;;;;;21009936;28;20235;-69
2022/04/21 12:34:45;;;;;;;3.77;2.87;;;17.90;50.00;;;;;;20999906;28;20228;-68
2022/04/21 12:44:50;;;;;;;4.40;3.10;;;17.90;49.50;;;;;;20999972;28;20293;-68
2022/04/21 12:54:51;;;;;;;4.23;2.83;;;18.00;49.50;;;;;;20998484;28;20705;-69
2022/04/21 13:04:53;;;;;;;5.83;3.20;;;18.40;49.40;;;;;;20998786;28;20211;-68
2022/04/21 13:15:04;;;;;;;4.23;2.73;;;18.60;48.00;;;;;;20979767;28;20231;-69
2022/04/21 13:25:06;;;;;;;5.03;2.60;;;18.30;48.40;;;;;;20996347;28;20290;-69
2022/04/21 13:35:08;;;;;;;9.13;2.93;;;18.20;47.80;;;;;;20994785;28;20229;-68
2022/04/21 13:45:09;;;;;;;3.90;2.70;;;18.20;48.20;;;;;;20993943;28;20223;-69
2022/04/21 13:55:32;;;;;;;5.00;3.20;;;18.10;48.10;;;;;;20993522;28;20239;-67
2022/04/21 14:05:37;;;;;;;19.17;3.67;;;17.80;48.50;;;;;;20993648;28;20232;-63
2022/04/21 14:15:39;;;;;;;5.20;3.00;;;17.50;48.60;;;;;;20993539;28;20246;-67
2022/04/21 14:25:46;;;;;;;6.83;3.47;;;17.50;49.20;;;;;;20972825;28;20205;-66
2022/04/21 14:35:50;;;;;;;6.57;3.33;;;17.40;49.30;;;;;;20990905;28;20246;-65
2022/04/21 14:45:51;;;;;;;6.27;3.00;;;17.20;49.10;;;;;;20992439;28;20215;-65
2022/04/21 14:55:53;;;;;;;5.10;3.17;;;17.20;49.70;;;;;;20992731;28;20242;-64
2022/04/21 15:05:55;;;;;;;7.60;3.47;;;16.90;50.10;;;;;;20993502;28;20216;-69
2022/04/21 15:15:57;;;;;;;10.10;3.67;;;16.70;51.00;;;;;;20993161;28;20248;-64
2022/04/21 15:25:59;;;;;;;4.90;3.33;;;16.60;50.90;;;;;;21043393;28;20207;-67
2022/04/21 15:36:01;;;;;;;10.60;3.40;;;16.50;51.60;;;;;;20977072;28;20635;-69
2022/04/21 15:46:04;;;;;;;9.70;3.70;;;16.60;52.60;;;;;;21089604;28;20207;-67
2022/04/21 16:06:26;;;;;;;3.87;3.20;;;16.30;53.00;;;;;;21102979;28;20229;-66
2022/04/21 16:16:29;;;;;;;6.83;3.83;;;16.30;53.60;;;;;;21171538;28;20247;-66
2022/04/21 16:26:31;;;;;;;4.27;3.30;;;16.20;53.60;;;;;;21171700;28;20566;-66
2022/04/21 16:36:33;;;;;;;4.70;3.43;;;16.10;53.90;;;;;;21169722;28;20232;-75
2022/04/21 16:46:34;;;;;;;6.70;3.73;;;16.20;54.40;;;;;;21168152;27;20240;-73
2022/04/21 16:56:36;;;;;;;5.40;3.43;;;16.20;54.90;;;;;;21168319;28;20235;-67
2022/04/21 17:06:38;;;;;;;4.47;3.50;;;16.10;55.20;;;;;;21168120;28;20202;-67
2022/04/21 17:16:40;;;;;;;6.03;3.90;;;15.80;55.70;;;;;;21167093;28;20238;-64
2022/04/21 17:26:42;;;;;;;8.33;4.57;;;15.80;56.30;;;;;;21169611;28;20241;-63
2022/04/21 17:36:43;;;;;;;6.57;4.10;;;15.60;56.60;;;;;;21168913;28;20230;-63
2022/04/21 17:46:45;;;;;;;4.23;3.83;;;15.40;57.30;;;;;;21164753;28;20241;-63
2022/04/21 17:56:48;;;;;;;5.00;3.70;;;15.30;57.50;;;;;;21165040;28;20276;-61
2022/04/21 18:06:50;;;;;;;8.37;4.13;;;15.20;58.20;;;;;;21147203;28;20211;-61
2022/04/21 18:16:54;;;;;;;8.63;4.10;;;15.00;58.50;;;;;;21077967;28;20239;-60
2022/04/21 18:26:56;;;;;;;5.80;4.47;;;14.80;59.30;;;;;;21078702;28;20658;-63
2022/04/21 18:36:57;;;;;;;6.93;5.00;;;14.50;59.90;;;;;;21077156;28;20237;-63
2022/04/21 18:46:59;;;;;;;6.90;4.77;;;14.20;60.50;;;;;;21075488;28;20233;-63
2022/04/21 18:57:01;;;;;;;6.93;5.50;;;14.00;61.00;;;;;;21075118;28;20592;-62
2022/04/21 19:07:04;;;;;;;7.13;5.97;;;13.90;61.90;;;;;;21075309;28;20208;-62
2022/04/21 19:17:07;;;;;;;8.57;6.30;;;13.60;62.40;;;;;;21067875;28;20239;-61
2022/04/21 19:27:11;;;;;;;8.73;6.53;;;13.40;63.40;;;;;;21089506;28;20569;-61
2022/04/21 19:37:13;;;;;;;11.53;7.20;;;13.30;63.80;;;;;;21088487;28;20256;-62
2022/04/21 19:47:15;;;;;;;8.73;7.07;;;13.20;64.60;;;;;;21088117;28;20241;-62
2022/04/21 19:57:17;;;;;;;9.77;7.27;;;13.00;65.30;;;;;;21086620;28;20245;-62
2022/04/21 20:17:59;;;;;;;11.63;8.10;;;12.60;66.30;;;;;;20998635;28;20246;-64
2022/04/21 20:28:01;;;;;;;13.20;7.93;;;12.60;66.70;;;;;;21000083;28;20563;-62
2022/04/21 20:38:04;;;;;;;10.00;8.10;;;12.50;67.20;;;;;;20999603;28;20638;-64
2022/04/21 20:48:07;;;;;;;12.83;8.10;;;12.50;67.70;;;;;;20998997;28;20769;-63
2022/04/21 20:58:09;;;;;;;12.27;8.80;;;12.50;68.30;;;;;;20998367;28;20261;-62
2022/04/21 21:08:13;;;;;;;12.53;9.13;;;12.50;69.00;;;;;;20997247;28;20544;-63
2022/04/21 21:18:14;;;;;;;12.07;9.83;;;12.50;69.40;;;;;;20996216;28;20326;-63
2022/04/21 21:29:28;;;;;;;13.73;9.97;;;12.60;69.70;;;;;;21248677;27;20510;-62
2022/04/21 21:39:29;;;;;;;14.93;11.10;;;12.70;70.60;;;;;;21150206;28;20203;-64
2022/04/21 21:59:52;;;;;;;15.77;11.93;;;12.60;72.10;;;;;;21147055;28;20689;-63
2022/04/21 22:09:53;;;;;;;16.20;12.33;;;12.60;72.30;;;;;;21114886;28;20578;-62
2022/04/21 22:19:55;;;;;;;17.30;12.53;;;12.60;72.80;;;;;;21066995;28;20706;-66
2022/04/21 22:29:57;;;;;;;19.97;13.23;;;12.60;73.20;;;;;;21055696;28;20215;-62
2022/04/21 22:39:59;;;;;;;17.17;12.80;;;12.50;73.40;;;;;;21008926;28;20238;-63
2022/04/21 22:50:02;;;;;;;17.93;14.17;;;12.60;74.30;;;;;;21004009;28;20248;-67
2022/04/21 23:00:05;;;;;;;19.83;14.30;;;12.40;74.00;;;;;;21002795;28;20706;-68
2022/04/21 23:20:28;;;;;;;22.17;15.50;;;12.20;75.00;;;;;;21000910;28;20594;-65
2022/04/21 23:30:30;;;;;;;23.13;16.37;;;12.10;75.90;;;;;;21000115;28;20206;-65
2022/04/21 23:40:31;;;;;;;21.93;15.83;;;12.00;76.20;;;;;;20999476;28;20239;-61
2022/04/21 23:50:34;;;;;;;25.17;16.67;;;11.90;76.50;;;;;;20997060;28;20207;-62
